sensor_id;sensor_type;location;lat;lon;timestamp;pressure;altitude;pressure_sealevel;temperature;humidity
60611;BME280;46439;51.164;13.572;2022-12-07T00:01:43;99868.30;;;3.32;93.23
60611;BME280;46439;51.164;13.572;2022-12-07T00:04:14;99868.07;;;3.32;93.25
60611;BME280;46439;51.164;13.572;2022-12-07T00:06:45;99868.98;;;3.32;93.23
60611;BME280;46439;51.164;13.572;2022-12-07T00:09:15;99870.42;;;3.36;93.18
60611;BME280;46439;51.164;13.572;2022-12-07T00:11:44;99861.08;;;3.37;93.25
60611;BME280;46439;51.164;13.572;2022-12-07T00:14:16;99857.80;;;3.40;93.52
60611;BME280;46439;51.164;13.572;2022-12-07T00:16:46;99857.45;;;3.42;93.47
60611;BME280;46439;51.164;13.572;2022-12-07T00:19:19;99855.69;;;3.45;93.61
60611;BME280;46439;51.164;13.572;2022-12-07T00:21:48;99851.07;;;3.51;93.42
60611;BME280;46439;51.164;13.572;2022-12-07T00:24:31;99850.17;;;3.53;93.71
60611;BME280;46439;51.164;13.572;2022-12-07T00:27:00;99846.95;;;3.56;93.77
60611;BME280;46439;51.164;13.572;2022-12-07T00:29:32;99846.08;;;3.55;93.83
60611;BME280;46439;51.164;13.572;2022-12-07T00:32:00;99841.42;;;3.59;93.57
60611;BME280;46439;51.164;13.572;2022-12-07T00:34:29;99840.70;;;3.58;93.75
60611;BME280;46439;51.164;13.572;2022-12-07T00:36:57;99840.36;;;3.56;93.56
60611;BME280;46439;51.164;13.572;2022-12-07T00:39:26;99841.92;;;3.56;93.64
60611;BME280;46439;51.164;13.572;2022-12-07T00:41:55;99834.46;;;3.58;93.64
60611;BME280;46439;51.164;13.572;2022-12-07T00:44:23;99839.17;;;3.59;93.87
60611;BME280;46439;51.164;13.572;2022-12-07T00:46:51;99833.58;;;3.58;93.69
60611;BME280;46439;51.164;13.572;2022-12-07T00:49:20;99836.30;;;3.57;93.78
60611;BME280;46439;51.164;13.572;2022-12-07T00:52:01;99838.08;;;3.57;93.52
60611;BME280;46439;51.164;13.572;2022-12-07T00:54:30;99837.48;;;3.60;93.41
60611;BME280;46439;51.164;13.572;2022-12-07T00:56:58;99832.27;;;3.62;94.08
60611;BME280;46439;51.164;13.572;2022-12-07T00:59:27;99830.89;;;3.64;93.87
60611;BME280;46439;51.164;13.572;2022-12-07T01:01:55;99828.48;;;3.61;93.57
60611;BME280;46439;51.164;13.572;2022-12-07T01:04:23;99826.03;;;3.61;93.81
60611;BME280;46439;51.164;13.572;2022-12-07T01:06:52;99821.16;;;3.63;93.90
60611;BME280;46439;51.164;13.572;2022-12-07T01:09:20;99822.44;;;3.65;93.66
60611;BME280;46439;51.164;13.572;2022-12-07T01:11:49;99821.40;;;3.63;93.74
60611;BME280;46439;51.164;13.572;2022-12-07T01:14:18;99819.48;;;3.62;93.74
60611;BME280;46439;51.164;13.572;2022-12-07T01:16:46;99817.66;;;3.61;93.79
60611;BME280;46439;51.164;13.572;2022-12-07T01:19:15;99816.52;;;3.62;93.82
60611;BME280;46439;51.164;13.572;2022-12-07T01:21:43;99819.52;;;3.68;93.76
60611;BME280;46439;51.164;13.572;2022-12-07T01:24:12;99825.45;;;3.75;94.10
60611;BME280;46439;51.164;13.572;2022-12-07T01:26:40;99822.02;;;3.82;93.90
60611;BME280;46439;51.164;13.572;2022-12-07T01:29:09;99819.47;;;3.86;94.15
60611;BME280;46439;51.164;13.572;2022-12-07T01:31:37;99824.09;;;3.92;94.49
60611;BME280;46439;51.164;13.572;2022-12-07T01:34:06;99818.52;;;3.93;94.33
60611;BME280;46439;51.164;13.572;2022-12-07T01:36:36;99819.02;;;3.93;94.18
60611;BME280;46439;51.164;13.572;2022-12-07T01:39:07;99819.61;;;3.89;94.13
60611;BME280;46439;51.164;13.572;2022-12-07T01:41:37;99817.77;;;3.85;93.99
60611;BME280;46439;51.164;13.572;2022-12-07T01:44:22;99820.25;;;3.79;94.06
60611;BME280;46439;51.164;13.572;2022-12-07T01:46:52;99824.33;;;3.80;93.92
60611;BME280;46439;51.164;13.572;2022-12-07T01:49:24;99821.18;;;3.83;94.04
60611;BME280;46439;51.164;13.572;2022-12-07T01:52:01;99823.58;;;3.88;94.05
60611;BME280;46439;51.164;13.572;2022-12-07T01:54:31;99823.22;;;3.90;94.26
60611;BME280;46439;51.164;13.572;2022-12-07T01:57:01;99824.06;;;3.82;94.15
60611;BME280;46439;51.164;13.572;2022-12-07T01:59:30;99825.46;;;3.73;93.93
60611;BME280;46439;51.164;13.572;2022-12-07T02:01:58;99824.36;;;3.71;93.76
60611;BME280;46439;51.164;13.572;2022-12-07T02:04:28;99823.58;;;3.71;93.85
60611;BME280;46439;51.164;13.572;2022-12-07T02:06:58;99821.67;;;3.66;93.64
60611;BME280;46439;51.164;13.572;2022-12-07T02:09:26;99817.21;;;3.62;93.72
60611;BME280;46439;51.164;13.572;2022-12-07T02:11:56;99811.35;;;3.62;93.45
60611;BME280;46439;51.164;13.572;2022-12-07T02:14:25;99812.83;;;3.61;93.73
60611;BME280;46439;51.164;13.572;2022-12-07T02:17:04;99811.73;;;3.59;93.75
60611;BME280;46439;51.164;13.572;2022-12-07T02:23:04;99818.52;;;3.49;93.71
60611;BME280;46439;51.164;13.572;2022-12-07T02:29:08;99816.89;;;3.45;93.60
60611;BME280;46439;51.164;13.572;2022-12-07T02:31:40;99807.85;;;3.45;93.44
60611;BME280;46439;51.164;13.572;2022-12-07T02:34:17;99807.48;;;3.43;93.52
60611;BME280;46439;51.164;13.572;2022-12-07T02:36:53;99801.88;;;3.42;93.59
60611;BME280;46439;51.164;13.572;2022-12-07T02:39:28;99798.95;;;3.45;93.58
60611;BME280;46439;51.164;13.572;2022-12-07T02:42:02;99797.63;;;3.50;93.84
60611;BME280;46439;51.164;13.572;2022-12-07T02:44:34;99796.05;;;3.58;93.79
60611;BME280;46439;51.164;13.572;2022-12-07T02:47:04;99792.42;;;3.60;93.94
60611;BME280;46439;51.164;13.572;2022-12-07T02:49:34;99789.28;;;3.66;93.98
60611;BME280;46439;51.164;13.572;2022-12-07T02:52:05;99782.23;;;3.73;94.12
60611;BME280;46439;51.164;13.572;2022-12-07T02:54:33;99781.18;;;3.75;94.24
60611;BME280;46439;51.164;13.572;2022-12-07T02:57:12;99779.00;;;3.77;94.32
60611;BME280;46439;51.164;13.572;2022-12-07T02:59:50;99776.20;;;3.78;94.01
60611;BME280;46439;51.164;13.572;2022-12-07T03:02:28;99768.66;;;3.81;94.35
60611;BME280;46439;51.164;13.572;2022-12-07T03:05:07;99764.02;;;3.88;94.21
60611;BME280;46439;51.164;13.572;2022-12-07T03:07:46;99763.70;;;3.89;94.58
60611;BME280;46439;51.164;13.572;2022-12-07T03:10:22;99764.27;;;3.89;94.24
60611;BME280;46439;51.164;13.572;2022-12-07T03:13:00;99765.90;;;3.92;94.37
60611;BME280;46439;51.164;13.572;2022-12-07T03:15:34;99761.43;;;3.94;94.35
60611;BME280;46439;51.164;13.572;2022-12-07T03:18:05;99760.34;;;3.98;94.44
60611;BME280;46439;51.164;13.572;2022-12-07T03:20:37;99758.30;;;4.05;94.40
60611;BME280;46439;51.164;13.572;2022-12-07T03:23:08;99761.13;;;4.11;94.74
60611;BME280;46439;51.164;13.572;2022-12-07T03:25:41;99760.99;;;4.14;94.83
60611;BME280;46439;51.164;13.572;2022-12-07T03:28:11;99762.25;;;4.18;94.89
60611;BME280;46439;51.164;13.572;2022-12-07T03:30:42;99763.60;;;4.17;95.12
60611;BME280;46439;51.164;13.572;2022-12-07T03:33:15;99763.23;;;4.17;94.85
60611;BME280;46439;51.164;13.572;2022-12-07T03:35:49;99760.88;;;4.18;94.71
60611;BME280;46439;51.164;13.572;2022-12-07T03:38:23;99753.92;;;4.16;94.87
60611;BME280;46439;51.164;13.572;2022-12-07T03:40:58;99753.91;;;4.16;94.82
60611;BME280;46439;51.164;13.572;2022-12-07T03:43:29;99750.73;;;4.14;94.84
60611;BME280;46439;51.164;13.572;2022-12-07T03:46:04;99742.87;;;4.06;94.57
60611;BME280;46439;51.164;13.572;2022-12-07T03:48:42;99742.98;;;3.99;94.46
60611;BME280;46439;51.164;13.572;2022-12-07T03:51:18;99738.25;;;3.96;94.35
60611;BME280;46439;51.164;13.572;2022-12-07T03:53:52;99741.59;;;3.91;93.88
60611;BME280;46439;51.164;13.572;2022-12-07T03:56:23;99744.67;;;3.83;94.18
60611;BME280;46439;51.164;13.572;2022-12-07T03:58:53;99739.83;;;3.67;93.73
60611;BME280;46439;51.164;13.572;2022-12-07T04:01:24;99736.08;;;3.60;93.43
60611;BME280;46439;51.164;13.572;2022-12-07T04:03:52;99729.15;;;3.58;93.63
60611;BME280;46439;51.164;13.572;2022-12-07T04:06:21;99728.86;;;3.49;93.72
60611;BME280;46439;51.164;13.572;2022-12-07T04:08:49;99724.14;;;3.44;93.47
60611;BME280;46439;51.164;13.572;2022-12-07T04:11:18;99718.43;;;3.40;93.39
60611;BME280;46439;51.164;13.572;2022-12-07T04:13:46;99715.06;;;3.38;93.26
60611;BME280;46439;51.164;13.572;2022-12-07T04:16:34;99711.11;;;3.33;93.29
60611;BME280;46439;51.164;13.572;2022-12-07T04:19:02;99712.27;;;3.30;93.34
60611;BME280;46439;51.164;13.572;2022-12-07T04:21:31;99709.33;;;3.33;93.47
60611;BME280;46439;51.164;13.572;2022-12-07T04:23:59;99708.35;;;3.40;93.60
60611;BME280;46439;51.164;13.572;2022-12-07T04:26:28;99705.14;;;3.44;93.85
60611;BME280;46439;51.164;13.572;2022-12-07T04:28:56;99703.27;;;3.45;93.77
60611;BME280;46439;51.164;13.572;2022-12-07T04:31:25;99698.78;;;3.45;93.93
60611;BME280;46439;51.164;13.572;2022-12-07T04:33:53;99693.44;;;3.43;94.13
60611;BME280;46439;51.164;13.572;2022-12-07T04:36:23;99690.88;;;3.42;94.00
60611;BME280;46439;51.164;13.572;2022-12-07T04:38:54;99688.13;;;3.45;93.76
60611;BME280;46439;51.164;13.572;2022-12-07T04:41:24;99683.08;;;3.48;94.22
60611;BME280;46439;51.164;13.572;2022-12-07T04:43:57;99682.45;;;3.51;93.94
60611;BME280;46439;51.164;13.572;2022-12-07T04:46:26;99683.89;;;3.53;94.12
60611;BME280;46439;51.164;13.572;2022-12-07T04:48:56;99681.76;;;3.51;93.90
60611;BME280;46439;51.164;13.572;2022-12-07T04:51:26;99681.50;;;3.51;94.01
60611;BME280;46439;51.164;13.572;2022-12-07T04:53:56;99675.83;;;3.53;94.10
60611;BME280;46439;51.164;13.572;2022-12-07T04:56:25;99668.24;;;3.56;94.09
60611;BME280;46439;51.164;13.572;2022-12-07T04:58:55;99668.97;;;3.60;94.25
60611;BME280;46439;51.164;13.572;2022-12-07T05:01:24;99667.02;;;3.62;94.38
60611;BME280;46439;51.164;13.572;2022-12-07T05:03:52;99660.38;;;3.60;94.27
60611;BME280;46439;51.164;13.572;2022-12-07T05:06:21;99667.25;;;3.59;94.29
60611;BME280;46439;51.164;13.572;2022-12-07T05:08:50;99663.66;;;3.60;94.15
60611;BME280;46439;51.164;13.572;2022-12-07T05:11:18;99659.08;;;3.57;94.19
60611;BME280;46439;51.164;13.572;2022-12-07T05:14:09;99657.13;;;3.50;93.92
60611;BME280;46439;51.164;13.572;2022-12-07T05:16:38;99656.61;;;3.49;94.02
60611;BME280;46439;51.164;13.572;2022-12-07T05:19:07;99657.76;;;3.50;93.95
60611;BME280;46439;51.164;13.572;2022-12-07T05:21:36;99660.44;;;3.50;93.90
60611;BME280;46439;51.164;13.572;2022-12-07T05:24:07;99657.04;;;3.49;93.89
60611;BME280;46439;51.164;13.572;2022-12-07T05:26:36;99654.33;;;3.49;94.13
60611;BME280;46439;51.164;13.572;2022-12-07T05:29:05;99653.60;;;3.49;93.86
60611;BME280;46439;51.164;13.572;2022-12-07T05:31:33;99653.08;;;3.49;94.12
60611;BME280;46439;51.164;13.572;2022-12-07T05:34:02;99649.77;;;3.40;93.62
60611;BME280;46439;51.164;13.572;2022-12-07T05:36:30;99645.66;;;3.37;93.75
60611;BME280;46439;51.164;13.572;2022-12-07T05:39:00;99647.30;;;3.31;93.56
60611;BME280;46439;51.164;13.572;2022-12-07T05:41:28;99642.29;;;3.25;93.38
60611;BME280;46439;51.164;13.572;2022-12-07T05:44:16;99636.55;;;3.19;93.43
60611;BME280;46439;51.164;13.572;2022-12-07T05:46:45;99631.48;;;3.16;93.39
60611;BME280;46439;51.164;13.572;2022-12-07T05:49:13;99634.23;;;3.16;93.15
60611;BME280;46439;51.164;13.572;2022-12-07T05:51:42;99628.27;;;3.11;93.25
60611;BME280;46439;51.164;13.572;2022-12-07T05:54:11;99624.86;;;3.09;93.17
60611;BME280;46439;51.164;13.572;2022-12-07T05:56:39;99625.11;;;3.06;93.06
60611;BME280;46439;51.164;13.572;2022-12-07T05:59:10;99623.01;;;3.06;93.05
60611;BME280;46439;51.164;13.572;2022-12-07T06:01:51;99619.02;;;3.09;93.05
60611;BME280;46439;51.164;13.572;2022-12-07T06:04:21;99616.80;;;3.06;93.37
60611;BME280;46439;51.164;13.572;2022-12-07T06:06:50;99617.02;;;3.03;93.18
60611;BME280;46439;51.164;13.572;2022-12-07T06:09:19;99619.55;;;3.03;92.93
60611;BME280;46439;51.164;13.572;2022-12-07T06:11:48;99618.95;;;3.03;93.14
60611;BME280;46439;51.164;13.572;2022-12-07T06:14:36;99615.73;;;3.04;93.27
60611;BME280;46439;51.164;13.572;2022-12-07T06:17:05;99617.89;;;3.02;93.12
60611;BME280;46439;51.164;13.572;2022-12-07T06:19:34;99619.96;;;3.02;93.00
60611;BME280;46439;51.164;13.572;2022-12-07T06:22:03;99619.96;;;3.02;93.29
60611;BME280;46439;51.164;13.572;2022-12-07T06:24:33;99618.65;;;3.01;93.24
60611;BME280;46439;51.164;13.572;2022-12-07T06:27:01;99620.02;;;3.02;93.01
60611;BME280;46439;51.164;13.572;2022-12-07T06:29:30;99617.91;;;2.99;93.13
60611;BME280;46439;51.164;13.572;2022-12-07T06:31:58;99615.48;;;2.99;93.18
60611;BME280;46439;51.164;13.572;2022-12-07T06:34:27;99621.31;;;2.97;93.05
60611;BME280;46439;51.164;13.572;2022-12-07T06:36:56;99617.63;;;2.93;93.01
60611;BME280;46439;51.164;13.572;2022-12-07T06:39:26;99614.89;;;2.89;92.83
60611;BME280;46439;51.164;13.572;2022-12-07T06:41:55;99616.81;;;2.88;92.90
60611;BME280;46439;51.164;13.572;2022-12-07T06:44:24;99619.11;;;2.86;92.78
60611;BME280;46439;51.164;13.572;2022-12-07T06:46:54;99619.33;;;2.84;92.78
60611;BME280;46439;51.164;13.572;2022-12-07T06:49:22;99621.33;;;2.81;92.60
60611;BME280;46439;51.164;13.572;2022-12-07T06:51:51;99619.97;;;2.80;92.98
60611;BME280;46439;51.164;13.572;2022-12-07T06:54:20;99619.13;;;2.80;92.72
60611;BME280;46439;51.164;13.572;2022-12-07T06:56:48;99620.98;;;2.77;92.82
60611;BME280;46439;51.164;13.572;2022-12-07T06:59:17;99624.17;;;2.73;92.70
60611;BME280;46439;51.164;13.572;2022-12-07T07:01:46;99622.42;;;2.69;92.54
60611;BME280;46439;51.164;13.572;2022-12-07T07:04:16;99627.02;;;2.69;92.69
60611;BME280;46439;51.164;13.572;2022-12-07T07:06:44;99626.84;;;2.69;92.78
60611;BME280;46439;51.164;13.572;2022-12-07T07:09:13;99626.77;;;2.68;92.79
60611;BME280;46439;51.164;13.572;2022-12-07T07:11:41;99628.80;;;2.65;92.51
60611;BME280;46439;51.164;13.572;2022-12-07T07:14:10;99635.66;;;2.64;92.62
60611;BME280;46439;51.164;13.572;2022-12-07T07:16:38;99635.90;;;2.61;92.58
60611;BME280;46439;51.164;13.572;2022-12-07T07:19:07;99639.16;;;2.60;92.67
60611;BME280;46439;51.164;13.572;2022-12-07T07:21:35;99638.64;;;2.62;92.51
60611;BME280;46439;51.164;13.572;2022-12-07T07:24:05;99637.62;;;2.62;92.79
60611;BME280;46439;51.164;13.572;2022-12-07T07:26:34;99641.76;;;2.63;92.53
60611;BME280;46439;51.164;13.572;2022-12-07T07:29:03;99644.33;;;2.68;92.77
60611;BME280;46439;51.164;13.572;2022-12-07T07:31:31;99635.42;;;2.68;92.77
60611;BME280;46439;51.164;13.572;2022-12-07T07:34:00;99640.86;;;2.73;92.92
60611;BME280;46439;51.164;13.572;2022-12-07T07:36:28;99634.17;;;2.76;92.94
60611;BME280;46439;51.164;13.572;2022-12-07T07:38:57;99643.22;;;2.79;93.33
60611;BME280;46439;51.164;13.572;2022-12-07T07:41:25;99636.61;;;2.81;93.00
60611;BME280;46439;51.164;13.572;2022-12-07T07:43:54;99634.27;;;2.84;93.02
60611;BME280;46439;51.164;13.572;2022-12-07T07:46:23;99633.67;;;2.88;93.17
60611;BME280;46439;51.164;13.572;2022-12-07T07:48:51;99628.69;;;2.92;93.39
60611;BME280;46439;51.164;13.572;2022-12-07T07:51:20;99633.63;;;2.95;93.07
60611;BME280;46439;51.164;13.572;2022-12-07T07:53:49;99640.51;;;2.96;93.37
60611;BME280;46439;51.164;13.572;2022-12-07T07:56:17;99646.91;;;2.97;93.37
60611;BME280;46439;51.164;13.572;2022-12-07T07:58:46;99640.31;;;2.98;93.38
60611;BME280;46439;51.164;13.572;2022-12-07T08:01:14;99637.92;;;2.98;93.18
60611;BME280;46439;51.164;13.572;2022-12-07T08:03:44;99641.49;;;3.00;93.17
60611;BME280;46439;51.164;13.572;2022-12-07T08:06:13;99641.58;;;3.01;93.45
60611;BME280;46439;51.164;13.572;2022-12-07T08:08:42;99643.77;;;3.02;93.22
60611;BME280;46439;51.164;13.572;2022-12-07T08:11:10;99639.65;;;3.05;93.12
60611;BME280;46439;51.164;13.572;2022-12-07T08:13:39;99638.64;;;3.08;93.13
60611;BME280;46439;51.164;13.572;2022-12-07T08:16:09;99633.32;;;3.10;93.35
60611;BME280;46439;51.164;13.572;2022-12-07T08:18:39;99630.69;;;3.12;93.23
60611;BME280;46439;51.164;13.572;2022-12-07T08:21:11;99633.71;;;3.13;93.34
60611;BME280;46439;51.164;13.572;2022-12-07T08:23:43;99630.52;;;3.16;93.21
60611;BME280;46439;51.164;13.572;2022-12-07T08:26:14;99627.61;;;3.20;93.20
60611;BME280;46439;51.164;13.572;2022-12-07T08:28:43;99624.42;;;3.22;93.47
60611;BME280;46439;51.164;13.572;2022-12-07T08:31:15;99627.56;;;3.24;93.33
60611;BME280;46439;51.164;13.572;2022-12-07T08:33:46;99634.17;;;3.26;93.40
60611;BME280;46439;51.164;13.572;2022-12-07T08:36:15;99631.91;;;3.28;93.34
60611;BME280;46439;51.164;13.572;2022-12-07T08:38:44;99629.57;;;3.30;93.64
60611;BME280;46439;51.164;13.572;2022-12-07T08:41:12;99628.91;;;3.33;93.54
60611;BME280;46439;51.164;13.572;2022-12-07T08:43:41;99628.09;;;3.36;93.43
60611;BME280;46439;51.164;13.572;2022-12-07T08:46:11;99628.70;;;3.39;93.69
60611;BME280;46439;51.164;13.572;2022-12-07T08:48:44;99628.05;;;3.42;93.56
60611;BME280;46439;51.164;13.572;2022-12-07T08:51:15;99630.91;;;3.48;93.69
60611;BME280;46439;51.164;13.572;2022-12-07T08:53:44;99635.45;;;3.53;93.86
60611;BME280;46439;51.164;13.572;2022-12-07T08:56:13;99631.67;;;3.57;93.85
60611;BME280;46439;51.164;13.572;2022-12-07T08:58:42;99626.41;;;3.62;94.02
60611;BME280;46439;51.164;13.572;2022-12-07T09:01:11;99631.01;;;3.68;93.88
60611;BME280;46439;51.164;13.572;2022-12-07T09:03:39;99630.99;;;3.74;94.05
60611;BME280;46439;51.164;13.572;2022-12-07T09:06:09;99633.52;;;3.82;94.00
60611;BME280;46439;51.164;13.572;2022-12-07T09:08:40;99632.72;;;3.86;94.01
60611;BME280;46439;51.164;13.572;2022-12-07T09:11:10;99639.68;;;3.92;94.19
60611;BME280;46439;51.164;13.572;2022-12-07T09:13:39;99641.05;;;3.96;93.97
60611;BME280;46439;51.164;13.572;2022-12-07T09:16:08;99638.23;;;4.00;94.16
60611;BME280;46439;51.164;13.572;2022-12-07T09:18:36;99636.51;;;4.05;94.17
60611;BME280;46439;51.164;13.572;2022-12-07T09:21:06;99638.70;;;4.06;94.22
60611;BME280;46439;51.164;13.572;2022-12-07T09:23:35;99642.48;;;4.08;94.22
60611;BME280;46439;51.164;13.572;2022-12-07T09:26:04;99645.69;;;4.12;94.13
60611;BME280;46439;51.164;13.572;2022-12-07T09:28:33;99651.86;;;4.14;94.07
60611;BME280;46439;51.164;13.572;2022-12-07T09:31:02;99651.27;;;4.17;93.97
60611;BME280;46439;51.164;13.572;2022-12-07T09:33:30;99651.14;;;4.18;94.17
60611;BME280;46439;51.164;13.572;2022-12-07T09:35:59;99645.83;;;4.21;94.13
60611;BME280;46439;51.164;13.572;2022-12-07T09:38:27;99645.35;;;4.28;94.20
60611;BME280;46439;51.164;13.572;2022-12-07T09:40:57;99644.02;;;4.35;94.26
60611;BME280;46439;51.164;13.572;2022-12-07T09:43:33;99646.20;;;4.38;94.46
60611;BME280;46439;51.164;13.572;2022-12-07T09:46:03;99643.75;;;4.41;94.36
60611;BME280;46439;51.164;13.572;2022-12-07T09:48:34;99647.40;;;4.44;94.35
60611;BME280;46439;51.164;13.572;2022-12-07T09:51:16;99647.86;;;4.47;94.34
60611;BME280;46439;51.164;13.572;2022-12-07T09:53:45;99643.95;;;4.49;94.38
60611;BME280;46439;51.164;13.572;2022-12-07T09:56:16;99643.52;;;4.49;94.42
60611;BME280;46439;51.164;13.572;2022-12-07T09:58:46;99633.16;;;4.53;94.50
60611;BME280;46439;51.164;13.572;2022-12-07T10:01:17;99632.13;;;4.62;94.59
60611;BME280;46439;51.164;13.572;2022-12-07T10:03:50;99632.22;;;4.70;94.68
60611;BME280;46439;51.164;13.572;2022-12-07T10:06:19;99623.48;;;4.78;94.59
60611;BME280;46439;51.164;13.572;2022-12-07T10:08:48;99623.52;;;4.87;94.80
60611;BME280;46439;51.164;13.572;2022-12-07T10:11:17;99617.16;;;4.93;94.73
60611;BME280;46439;51.164;13.572;2022-12-07T10:13:46;99618.27;;;4.98;94.79
60611;BME280;46439;51.164;13.572;2022-12-07T10:16:41;99615.42;;;5.04;94.87
60611;BME280;46439;51.164;13.572;2022-12-07T10:19:26;99616.88;;;5.14;94.89
60611;BME280;46439;51.164;13.572;2022-12-07T10:22:11;99612.06;;;5.18;94.91
60611;BME280;46439;51.164;13.572;2022-12-07T10:24:41;99612.75;;;5.18;94.87
60611;BME280;46439;51.164;13.572;2022-12-07T10:27:20;99609.54;;;5.16;94.90
60611;BME280;46439;51.164;13.572;2022-12-07T10:29:52;99611.41;;;5.12;94.83
60611;BME280;46439;51.164;13.572;2022-12-07T10:32:32;99610.81;;;5.09;94.74
60611;BME280;46439;51.164;13.572;2022-12-07T10:35:24;99604.98;;;5.01;94.55
60611;BME280;46439;51.164;13.572;2022-12-07T10:37:55;99605.35;;;4.96;94.39
60611;BME280;46439;51.164;13.572;2022-12-07T10:40:32;99603.64;;;4.95;94.49
60611;BME280;46439;51.164;13.572;2022-12-07T10:43:15;99604.17;;;4.97;94.39
60611;BME280;46439;51.164;13.572;2022-12-07T10:46:02;99604.30;;;4.97;94.47
60611;BME280;46439;51.164;13.572;2022-12-07T10:48:42;99604.78;;;4.96;94.39
60611;BME280;46439;51.164;13.572;2022-12-07T10:51:19;99604.79;;;4.96;94.26
60611;BME280;46439;51.164;13.572;2022-12-07T10:54:01;99603.55;;;4.92;94.47
60611;BME280;46439;51.164;13.572;2022-12-07T10:56:46;99597.52;;;4.90;94.42
60611;BME280;46439;51.164;13.572;2022-12-07T11:02:24;99592.92;;;4.92;94.29
60611;BME280;46439;51.164;13.572;2022-12-07T11:05:04;99586.11;;;4.92;94.31
60611;BME280;46439;51.164;13.572;2022-12-07T11:07:45;99585.35;;;4.94;94.51
60611;BME280;46439;51.164;13.572;2022-12-07T11:10:21;99585.20;;;4.97;94.32
60611;BME280;46439;51.164;13.572;2022-12-07T11:13:01;99583.06;;;4.97;94.42
60611;BME280;46439;51.164;13.572;2022-12-07T11:15:39;99585.85;;;5.00;94.56
60611;BME280;46439;51.164;13.572;2022-12-07T11:18:18;99577.70;;;5.05;94.59
60611;BME280;46439;51.164;13.572;2022-12-07T11:20:55;99579.55;;;5.10;94.69
60611;BME280;46439;51.164;13.572;2022-12-07T11:23:34;99576.85;;;5.08;94.71
60611;BME280;46439;51.164;13.572;2022-12-07T11:26:16;99581.79;;;5.03;94.41
60611;BME280;46439;51.164;13.572;2022-12-07T11:29:02;99587.70;;;4.99;94.48
60611;BME280;46439;51.164;13.572;2022-12-07T11:31:43;99596.14;;;4.88;94.29
60611;BME280;46439;51.164;13.572;2022-12-07T11:34:25;99596.25;;;4.76;93.94
60611;BME280;46439;51.164;13.572;2022-12-07T11:36:58;99592.21;;;4.69;94.02
60611;BME280;46439;51.164;13.572;2022-12-07T11:39:35;99584.21;;;4.64;93.74
60611;BME280;46439;51.164;13.572;2022-12-07T11:42:09;99580.28;;;4.60;93.68
60611;BME280;46439;51.164;13.572;2022-12-07T11:44:48;99579.27;;;4.58;93.55
60611;BME280;46439;51.164;13.572;2022-12-07T11:47:27;99579.39;;;4.56;93.59
60611;BME280;46439;51.164;13.572;2022-12-07T11:50:03;99582.16;;;4.59;93.83
60611;BME280;46439;51.164;13.572;2022-12-07T11:52:47;99581.22;;;4.58;93.87
60611;BME280;46439;51.164;13.572;2022-12-07T11:55:24;99584.76;;;4.55;94.00
60611;BME280;46439;51.164;13.572;2022-12-07T11:58:01;99582.02;;;4.57;94.02
60611;BME280;46439;51.164;13.572;2022-12-07T12:00:33;99579.05;;;4.62;93.99
60611;BME280;46439;51.164;13.572;2022-12-07T12:03:08;99579.21;;;4.62;94.04
60611;BME280;46439;51.164;13.572;2022-12-07T12:05:40;99577.11;;;4.65;94.24
60611;BME280;46439;51.164;13.572;2022-12-07T12:08:15;99574.89;;;4.66;94.19
60611;BME280;46439;51.164;13.572;2022-12-07T12:10:56;99572.63;;;4.69;94.12
60611;BME280;46439;51.164;13.572;2022-12-07T12:13:51;99572.00;;;4.72;94.38
60611;BME280;46439;51.164;13.572;2022-12-07T12:16:43;99562.18;;;4.72;94.31
60611;BME280;46439;51.164;13.572;2022-12-07T12:19:31;99559.63;;;4.74;94.27
60611;BME280;46439;51.164;13.572;2022-12-07T12:22:05;99554.88;;;4.79;94.39
60611;BME280;46439;51.164;13.572;2022-12-07T12:24:39;99552.48;;;4.86;94.44
60611;BME280;46439;51.164;13.572;2022-12-07T12:27:17;99546.36;;;4.90;94.55
60611;BME280;46439;51.164;13.572;2022-12-07T12:29:53;99550.23;;;4.94;94.56
60611;BME280;46439;51.164;13.572;2022-12-07T12:32:29;99553.59;;;4.98;94.67
60611;BME280;46439;51.164;13.572;2022-12-07T12:35:17;99552.27;;;5.00;94.63
60611;BME280;46439;51.164;13.572;2022-12-07T12:37:48;99552.52;;;5.01;94.56
60611;BME280;46439;51.164;13.572;2022-12-07T12:43:44;99551.95;;;5.05;94.80
60611;BME280;46439;51.164;13.572;2022-12-07T12:46:47;99545.90;;;5.04;94.54
60611;BME280;46439;51.164;13.572;2022-12-07T12:49:40;99545.98;;;5.01;94.57
60611;BME280;46439;51.164;13.572;2022-12-07T12:58:36;99542.45;;;4.93;94.39
60611;BME280;46439;51.164;13.572;2022-12-07T13:04:24;99562.52;;;4.74;94.14
60611;BME280;46439;51.164;13.572;2022-12-07T13:06:54;99566.60;;;4.58;93.88
60611;BME280;46439;51.164;13.572;2022-12-07T13:09:25;99560.80;;;4.39;93.57
60611;BME280;46439;51.164;13.572;2022-12-07T13:11:58;99556.80;;;4.25;93.27
60611;BME280;46439;51.164;13.572;2022-12-07T13:14:52;99555.68;;;4.16;93.24
60611;BME280;46439;51.164;13.572;2022-12-07T13:20:44;99554.73;;;3.87;92.95
60611;BME280;46439;51.164;13.572;2022-12-07T13:23:14;99545.14;;;3.77;93.00
60611;BME280;46439;51.164;13.572;2022-12-07T13:25:53;99546.58;;;3.77;93.16
60611;BME280;46439;51.164;13.572;2022-12-07T13:28:25;99543.98;;;3.76;93.20
60611;BME280;46439;51.164;13.572;2022-12-07T13:31:02;99542.84;;;3.79;93.09
60611;BME280;46439;51.164;13.572;2022-12-07T13:33:35;99546.76;;;3.82;93.44
60611;BME280;46439;51.164;13.572;2022-12-07T13:36:08;99544.25;;;3.82;93.43
60611;BME280;46439;51.164;13.572;2022-12-07T13:38:50;99543.91;;;3.84;93.40
60611;BME280;46439;51.164;13.572;2022-12-07T13:41:21;99536.60;;;3.90;93.61
60611;BME280;46439;51.164;13.572;2022-12-07T13:44:01;99539.99;;;3.94;93.76
60611;BME280;46439;51.164;13.572;2022-12-07T13:46:42;99537.71;;;3.95;93.97
60611;BME280;46439;51.164;13.572;2022-12-07T13:49:24;99542.29;;;3.98;93.79
60611;BME280;46439;51.164;13.572;2022-12-07T13:51:55;99542.84;;;4.01;93.93
60611;BME280;46439;51.164;13.572;2022-12-07T13:54:45;99541.39;;;4.05;93.93